Time;durP1;ratioP1;P1;durP2;ratioP2;P2;SDS_P1;SDS_P2;PMS_P1;PMS_P2;Temp;Humidity;BMP_temperature;BMP_pressure;BME280_temperature;BME280_humidity;BME280_pressure;Samples;Min_cycle;Max_cycle;Signal;HPM_P1;HPM_P2
2023/06/10 00:01:39;;;;;;;1.77;1.52;;;20.50;81.40;;;;;;5095328;28;20475;-54
2023/06/10 00:04:07;;;;;;;2.20;1.90;;;20.50;99.90;;;;;;5095118;28;20486;-52
2023/06/10 00:06:36;;;;;;;2.63;2.42;;;20.40;99.90;;;;;;5095847;28;20748;-53
2023/06/10 00:09:05;;;;;;;3.08;2.78;;;20.40;99.90;;;;;;5095966;28;20509;-51
2023/06/10 00:11:33;;;;;;;3.45;2.63;;;20.40;99.90;;;;;;5094961;28;20902;-53
2023/06/10 00:14:00;;;;;;;2.47;2.28;;;20.30;99.90;;;;;;5092718;28;20426;-50
2023/06/10 00:16:27;;;;;;;3.10;2.90;;;20.20;99.90;;;;;;5093204;28;20433;-51
2023/06/10 00:19:00;;;;;;;3.17;2.88;;;20.20;1.00;;;;;;5093427;28;20527;-52
2023/06/10 00:21:28;;;;;;;2.60;2.40;;;20.20;1.00;;;;;;5093620;28;20423;-50
2023/06/10 00:23:56;;;;;;;2.97;2.70;;;20.30;1.00;;;;;;5094010;28;20471;-49
2023/06/10 00:26:23;;;;;;;3.13;2.83;;;20.20;99.90;;;;;;5094927;28;20520;-51
2023/06/10 00:28:50;;;;;;;3.50;2.88;;;20.20;99.90;;;;;;5095400;28;20441;-48
2023/06/10 00:31:18;;;;;;;2.90;2.70;;;20.20;99.90;;;;;;5095807;28;20444;-50
2023/06/10 00:33:45;;;;;;;3.20;2.90;;;20.10;1.00;;;;;;5095691;28;20425;-50
2023/06/10 00:36:12;;;;;;;2.65;2.45;;;20.10;1.00;;;;;;5094799;28;20492;-51
2023/06/10 00:38:41;;;;;;;3.20;2.28;;;20.10;1.00;;;;;;5094717;28;20467;-52
2023/06/10 00:41:09;;;;;;;2.38;2.15;;;20.10;1.00;;;;;;5095024;28;20797;-52
2023/06/10 00:43:36;;;;;;;3.10;2.10;;;20.10;1.00;;;;;;5095147;28;20856;-47
2023/06/10 00:46:03;;;;;;;2.10;1.90;;;20.10;1.00;;;;;;5094936;28;20425;-53
2023/06/10 00:48:30;;;;;;;3.40;2.30;;;20.10;1.00;;;;;;5094977;28;20763;-54
2023/06/10 00:50:58;;;;;;;2.25;2.05;;;20.10;99.90;;;;;;5094774;28;20500;-54
2023/06/10 00:53:26;;;;;;;2.45;2.25;;;20.10;1.00;;;;;;5093933;28;20434;-54
2023/06/10 00:55:54;;;;;;;2.60;2.40;;;20.10;1.00;;;;;;5093520;28;20454;-53
2023/06/10 00:58:22;;;;;;;2.60;2.40;;;20.00;99.90;;;;;;5093193;28;20486;-51
2023/06/10 01:00:50;;;;;;;2.50;2.30;;;20.00;1.00;;;;;;5093326;28;20514;-53
2023/06/10 01:03:18;;;;;;;3.28;2.50;;;20.00;1.00;;;;;;5093839;28;20495;-51
2023/06/10 01:05:49;;;;;;;3.70;2.20;;;20.00;1.00;;;;;;5095034;28;20518;-54
2023/06/10 01:08:30;;;;;;;2.50;2.30;;;19.90;1.00;;;;;;5094362;28;20494;-49
2023/06/10 01:11:01;;;;;;;2.20;2.00;;;19.90;1.00;;;;;;5097279;28;20433;-54
2023/06/10 01:13:31;;;;;;;2.40;2.10;;;19.90;1.00;;;;;;5099202;28;20425;-54
2023/06/10 01:15:59;;;;;;;3.17;2.88;;;19.80;1.00;;;;;;5098655;28;20528;-49
2023/06/10 01:18:32;;;;;;;3.00;2.80;;;19.80;1.00;;;;;;5097786;28;20491;-53
2023/06/10 01:20:59;;;;;;;2.85;2.65;;;19.70;1.00;;;;;;5098609;28;20422;-52
2023/06/10 01:23:28;;;;;;;2.50;2.00;;;19.60;1.00;;;;;;5098131;28;20730;-56
2023/06/10 01:26:00;;;;;;;2.83;2.45;;;19.60;25.00;;;;;;5097151;28;20773;-51
2023/06/10 01:28:34;;;;;;;3.40;2.60;;;19.60;1.00;;;;;;5097211;28;20429;-51
2023/06/10 01:31:09;;;;;;;2.45;2.25;;;19.60;56.30;;;;;;5096879;28;20436;-50
2023/06/10 01:33:39;;;;;;;2.50;2.20;;;19.60;16.70;;;;;;5097520;28;20429;-52
2023/06/10 01:36:06;;;;;;;2.78;2.47;;;19.60;87.60;;;;;;5098078;28;20713;-53
2023/06/10 01:38:41;;;;;;;2.50;2.30;;;19.60;99.90;;;;;;5098296;28;20417;-51
2023/06/10 01:41:09;;;;;;;2.20;2.00;;;19.60;99.90;;;;;;5098391;28;20421;-49
2023/06/10 01:43:38;;;;;;;2.60;2.40;;;19.70;99.90;;;;;;5097824;28;20898;-53
2023/06/10 01:46:05;;;;;;;2.80;2.00;;;19.60;10.80;;;;;;5098696;28;20433;-50
2023/06/10 01:48:33;;;;;;;2.50;2.30;;;19.60;55.50;;;;;;5098922;28;20812;-55
2023/06/10 01:51:00;;;;;;;2.42;2.22;;;19.50;99.90;;;;;;5098261;28;20421;-52
2023/06/10 01:53:27;;;;;;;2.53;2.00;;;19.50;99.90;;;;;;5098069;28;20433;-49
2023/06/10 01:55:55;;;;;;;3.30;3.00;;;19.40;99.90;;;;;;5098739;28;20835;-52
2023/06/10 01:58:22;;;;;;;2.80;2.17;;;19.30;99.90;;;;;;5098060;28;20500;-54
2023/06/10 02:00:49;;;;;;;2.90;2.70;;;19.30;1.00;;;;;;5098017;28;20418;-52
2023/06/10 02:03:16;;;;;;;2.80;2.60;;;19.20;1.00;;;;;;5098186;28;20421;-53
2023/06/10 02:05:43;;;;;;;2.90;2.60;;;19.10;1.00;;;;;;5097842;28;20475;-53
2023/06/10 02:08:10;;;;;;;2.60;2.30;;;19.10;1.00;;;;;;5098263;28;20516;-54
2023/06/10 02:10:37;;;;;;;2.30;2.10;;;19.10;1.00;;;;;;5097655;28;20476;-54
2023/06/10 02:13:06;;;;;;;2.75;2.47;;;19.00;99.90;;;;;;5097916;28;20528;-52
2023/06/10 02:15:33;;;;;;;2.40;2.20;;;19.00;99.90;;;;;;5096363;28;20468;-48
2023/06/10 02:18:01;;;;;;;2.40;2.20;;;19.00;99.90;;;;;;5095919;28;20421;-50
2023/06/10 02:20:28;;;;;;;2.67;2.28;;;19.00;99.90;;;;;;5097581;28;20440;-52
2023/06/10 02:22:55;;;;;;;3.28;2.95;;;19.00;1.00;;;;;;5096726;28;20422;-51
2023/06/10 02:25:22;;;;;;;2.67;2.47;;;19.00;99.90;;;;;;5096939;28;20429;-53
2023/06/10 02:27:49;;;;;;;2.20;2.00;;;19.00;94.80;;;;;;5097890;28;20434;-55
2023/06/10 02:30:17;;;;;;;2.33;1.98;;;19.00;1.00;;;;;;5097351;28;20421;-51
2023/06/10 02:32:47;;;;;;;3.00;2.73;;;19.00;92.70;;;;;;5096790;28;20849;-50
2023/06/10 02:35:14;;;;;;;2.60;2.40;;;19.00;7.70;;;;;;5097118;28;20422;-50
2023/06/10 02:37:41;;;;;;;2.70;2.30;;;19.00;1.00;;;;;;5097381;28;20747;-53
2023/06/10 02:40:11;;;;;;;1.90;1.65;;;19.10;64.30;;;;;;5097045;28;20433;-53
2023/06/10 02:42:38;;;;;;;2.15;1.95;;;19.10;1.00;;;;;;5097233;28;20490;-54
2023/06/10 02:45:06;;;;;;;3.25;2.78;;;19.10;1.00;;;;;;5097585;28;20422;-52
2023/06/10 02:47:34;;;;;;;2.70;2.05;;;19.10;1.00;;;;;;5097240;28;20461;-50
2023/06/10 02:50:01;;;;;;;3.10;2.80;;;19.00;93.50;;;;;;5097103;28;20433;-54
2023/06/10 02:52:28;;;;;;;3.90;2.67;;;18.90;99.90;;;;;;5096455;28;20433;-54
2023/06/10 02:54:55;;;;;;;3.00;2.50;;;18.80;99.90;;;;;;5097336;28;20415;-52
2023/06/10 02:57:22;;;;;;;2.40;2.20;;;18.70;1.00;;;;;;5096700;28;20421;-57
2023/06/10 02:59:51;;;;;;;2.60;2.30;;;18.60;1.00;;;;;;5097092;28;20866;-50
2023/06/10 03:02:18;;;;;;;3.00;2.67;;;18.70;1.00;;;;;;5096906;28;20429;-49
2023/06/10 03:04:46;;;;;;;3.78;2.60;;;18.70;1.00;;;;;;5097314;28;20868;-53
2023/06/10 03:07:13;;;;;;;2.50;2.30;;;18.70;1.00;;;;;;5097111;28;20430;-52
2023/06/10 03:09:40;;;;;;;3.10;1.90;;;18.80;1.00;;;;;;5096300;28;20920;-50
2023/06/10 03:12:10;;;;;;;2.80;1.80;;;18.90;1.00;;;;;;5096605;28;20428;-50
2023/06/10 03:14:38;;;;;;;2.08;1.70;;;18.80;99.90;;;;;;5096705;28;20705;-51
2023/06/10 03:17:06;;;;;;;2.10;1.90;;;18.80;99.90;;;;;;5097148;28;20805;-50
2023/06/10 03:19:33;;;;;;;2.38;1.70;;;18.80;99.90;;;;;;5096411;28;20497;-53
2023/06/10 03:22:10;;;;;;;2.58;2.10;;;18.80;99.90;;;;;;5096128;28;20443;-53
2023/06/10 03:24:39;;;;;;;2.70;1.90;;;18.60;1.00;;;;;;5094683;28;20430;-55
2023/06/10 03:27:07;;;;;;;2.80;2.30;;;18.70;1.00;;;;;;5094720;28;20425;-52
2023/06/10 03:29:35;;;;;;;2.60;2.40;;;18.70;1.00;;;;;;5095084;28;20712;-53
2023/06/10 03:32:02;;;;;;;2.50;2.30;;;18.60;1.00;;;;;;5095605;28;20438;-52
2023/06/10 03:34:29;;;;;;;3.65;2.25;;;18.50;1.00;;;;;;5095735;28;20451;-50
2023/06/10 03:36:56;;;;;;;2.50;2.30;;;18.50;1.00;;;;;;5094782;28;20483;-52
2023/06/10 03:39:25;;;;;;;4.15;2.00;;;18.50;99.90;;;;;;5094649;28;20467;-51
2023/06/10 03:41:52;;;;;;;2.90;2.70;;;18.60;1.00;;;;;;5095625;28;20417;-52
2023/06/10 03:44:19;;;;;;;3.95;2.03;;;18.50;96.80;;;;;;5095963;28;20828;-53
2023/06/10 03:46:47;;;;;;;2.40;2.20;;;18.50;99.90;;;;;;5095745;28;20865;-52
2023/06/10 03:49:15;;;;;;;2.08;1.88;;;18.50;99.90;;;;;;5095449;28;20742;-51
2023/06/10 03:51:42;;;;;;;2.40;1.73;;;18.50;99.90;;;;;;5094832;28;20796;-49
2023/06/10 03:54:09;;;;;;;2.20;1.80;;;18.50;99.90;;;;;;5095786;28;20418;-53
2023/06/10 03:56:37;;;;;;;2.20;2.00;;;18.50;48.00;;;;;;5095671;28;20472;-50
2023/06/10 03:59:05;;;;;;;2.60;2.40;;;18.50;99.90;;;;;;5095698;28;20792;-52
2023/06/10 04:01:33;;;;;;;2.17;1.97;;;18.40;99.90;;;;;;5094235;28;20430;-53
2023/06/10 04:04:01;;;;;;;2.50;2.28;;;18.40;99.90;;;;;;5096037;28;20472;-52
2023/06/10 04:06:28;;;;;;;2.55;1.80;;;18.40;1.00;;;;;;5095361;28;20788;-49
2023/06/10 04:08:56;;;;;;;2.60;1.90;;;18.40;99.90;;;;;;5095596;28;20775;-51
2023/06/10 04:11:24;;;;;;;1.92;1.73;;;18.40;1.00;;;;;;5095806;28;20457;-54
2023/06/10 04:13:53;;;;;;;2.40;2.20;;;18.40;99.90;;;;;;5094084;28;20448;-53
2023/06/10 04:16:21;;;;;;;2.50;2.30;;;18.30;1.00;;;;;;5095635;28;20426;-53
2023/06/10 04:18:48;;;;;;;2.20;2.00;;;18.40;1.00;;;;;;5095664;28;20764;-53
2023/06/10 04:21:15;;;;;;;2.00;1.70;;;18.40;1.00;;;;;;5095278;28;20476;-53
2023/06/10 04:23:42;;;;;;;2.33;2.13;;;18.40;1.00;;;;;;5094764;28;20857;-52
2023/06/10 04:26:10;;;;;;;2.00;1.80;;;18.50;99.90;;;;;;5095668;28;20429;-51
2023/06/10 04:28:37;;;;;;;1.95;1.60;;;18.40;99.90;;;;;;5095126;28;20714;-51
2023/06/10 04:31:06;;;;;;;2.40;2.08;;;18.50;99.90;;;;;;5094518;28;20455;-52
2023/06/10 04:33:33;;;;;;;2.42;1.85;;;18.50;1.00;;;;;;5094617;28;20663;-46
2023/06/10 04:36:00;;;;;;;2.70;2.10;;;18.40;99.90;;;;;;5094955;28;20422;-45
2023/06/10 04:38:28;;;;;;;2.90;2.20;;;18.40;1.00;;;;;;5095430;28;20433;-50
2023/06/10 04:40:55;;;;;;;2.30;1.75;;;18.40;1.00;;;;;;5094843;28;20430;-47
2023/06/10 04:43:22;;;;;;;2.45;2.00;;;18.40;99.90;;;;;;5094510;28;20447;-52
2023/06/10 04:45:49;;;;;;;2.40;1.80;;;18.40;99.90;;;;;;5094393;28;20773;-49
2023/06/10 04:48:17;;;;;;;2.35;2.10;;;18.40;99.90;;;;;;5094081;28;20418;-49
2023/06/10 04:50:44;;;;;;;2.55;2.35;;;18.60;99.90;;;;;;5095168;28;20409;-51
2023/06/10 04:53:11;;;;;;;2.00;1.70;;;18.60;99.90;;;;;;5095298;28;20433;-46
2023/06/10 04:55:38;;;;;;;2.30;2.10;;;18.50;99.90;;;;;;5095005;28;20425;-52
2023/06/10 04:58:05;;;;;;;2.00;1.80;;;18.60;99.90;;;;;;5095304;28;20426;-50
2023/06/10 05:00:32;;;;;;;2.00;1.70;;;18.60;99.90;;;;;;5094990;28;20440;-53
2023/06/10 05:02:59;;;;;;;2.20;2.00;;;18.60;1.00;;;;;;5093941;28;20495;-55
2023/06/10 05:05:28;;;;;;;3.10;1.80;;;18.60;99.90;;;;;;5095244;28;20418;-53
2023/06/10 05:07:55;;;;;;;2.92;2.10;;;18.60;99.90;;;;;;5094777;28;20430;-53
2023/06/10 05:10:22;;;;;;;2.65;2.30;;;18.60;99.90;;;;;;5094758;28;20718;-54
2023/06/10 05:12:49;;;;;;;2.92;1.80;;;18.70;1.00;;;;;;5093541;28;20491;-52
2023/06/10 05:15:16;;;;;;;2.30;1.90;;;18.70;1.00;;;;;;5094730;28;20426;-53
2023/06/10 05:17:44;;;;;;;1.90;1.70;;;18.70;1.00;;;;;;5094881;28;20465;-51
2023/06/10 05:20:13;;;;;;;1.83;1.50;;;18.80;1.00;;;;;;5094637;28;20478;-50
2023/06/10 05:22:41;;;;;;;1.70;1.30;;;18.80;1.00;;;;;;5094672;28;20494;-52
2023/06/10 05:25:09;;;;;;;2.00;1.48;;;18.80;1.00;;;;;;5094535;28;20825;-50
2023/06/10 05:27:36;;;;;;;1.60;1.40;;;18.80;1.00;;;;;;5094491;28;20426;-53
2023/06/10 05:30:04;;;;;;;1.95;1.50;;;18.90;99.90;;;;;;5094507;28;20440;-54
2023/06/10 05:32:31;;;;;;;1.90;1.50;;;18.90;1.00;;;;;;5094147;28;20528;-52
2023/06/10 05:34:59;;;;;;;2.30;1.30;;;18.90;1.00;;;;;;5094905;28;20448;-53
2023/06/10 05:37:26;;;;;;;1.60;1.40;;;18.90;99.90;;;;;;5094867;28;20434;-53
2023/06/10 05:39:55;;;;;;;1.70;1.30;;;19.00;99.90;;;;;;5094543;28;20426;-52
2023/06/10 05:42:22;;;;;;;2.00;1.70;;;19.00;99.90;;;;;;5093863;28;20422;-49
2023/06/10 05:44:49;;;;;;;1.90;1.38;;;19.10;99.90;;;;;;5092088;28;20425;-53
2023/06/10 05:47:16;;;;;;;1.80;1.20;;;19.10;99.90;;;;;;5093676;28;20431;-51
2023/06/10 05:49:45;;;;;;;1.55;1.27;;;19.10;99.90;;;;;;5093552;28;20742;-54
2023/06/10 05:52:12;;;;;;;1.90;1.20;;;19.30;99.90;;;;;;5094115;28;20429;-53
2023/06/10 05:54:39;;;;;;;1.60;1.40;;;19.40;99.90;;;;;;5093802;28;20434;-53
2023/06/10 05:57:08;;;;;;;1.70;1.20;;;19.40;99.90;;;;;;5095631;28;20707;-53
2023/06/10 05:59:35;;;;;;;1.67;1.27;;;19.40;99.90;;;;;;5111880;28;20436;-53
2023/06/10 06:02:02;;;;;;;1.80;1.23;;;19.50;99.90;;;;;;5118187;28;20836;-54
2023/06/10 06:04:29;;;;;;;1.70;1.20;;;19.60;99.90;;;;;;5118341;28;20424;-53
2023/06/10 06:06:56;;;;;;;1.70;1.30;;;19.70;99.90;;;;;;5118313;28;20784;-50
2023/06/10 06:09:23;;;;;;;1.42;1.15;;;19.80;99.90;;;;;;5117779;28;20434;-51
2023/06/10 06:11:50;;;;;;;1.45;1.30;;;19.90;99.90;;;;;;5118772;28;20843;-53
2023/06/10 06:14:18;;;;;;;1.90;1.30;;;20.00;99.90;;;;;;5116885;28;20432;-52
2023/06/10 06:16:45;;;;;;;1.40;1.20;;;20.00;99.90;;;;;;5105298;28;20427;-47
2023/06/10 06:19:12;;;;;;;2.28;1.30;;;20.00;99.90;;;;;;5109815;28;20454;-50
2023/06/10 06:21:39;;;;;;;1.60;1.20;;;20.10;99.90;;;;;;5096905;28;20492;-49
2023/06/10 06:24:07;;;;;;;1.60;1.30;;;20.20;99.90;;;;;;5102668;28;20428;-50
2023/06/10 06:26:34;;;;;;;1.42;1.17;;;20.40;99.90;;;;;;5106329;28;20418;-50
2023/06/10 06:29:01;;;;;;;1.50;1.20;;;20.50;99.90;;;;;;5100847;28;20842;-50
2023/06/10 06:31:29;;;;;;;1.70;1.30;;;20.60;99.90;;;;;;5103554;28;20738;-48
2023/06/10 06:33:57;;;;;;;1.70;1.40;;;20.60;99.90;;;;;;5103563;28;20441;-53
2023/06/10 06:36:27;;;;;;;1.50;1.30;;;20.70;99.90;;;;;;5100608;28;20485;-47
2023/06/10 06:38:55;;;;;;;2.00;1.10;;;20.70;99.90;;;;;;5108246;28;20424;-47
2023/06/10 06:41:23;;;;;;;1.63;1.10;;;20.90;99.90;;;;;;5102908;28;20813;-47
2023/06/10 06:43:50;;;;;;;2.72;1.58;;;20.90;99.90;;;;;;5103232;28;20535;-47
2023/06/10 06:46:17;;;;;;;2.10;1.40;;;21.00;99.90;;;;;;5102338;28;20430;-49
2023/06/10 06:48:45;;;;;;;1.80;1.30;;;21.10;99.90;;;;;;5097272;28;20745;-48
2023/06/10 06:51:12;;;;;;;1.70;1.20;;;21.20;99.90;;;;;;5104393;28;20856;-51
2023/06/10 06:53:44;;;;;;;1.60;1.50;;;21.30;99.90;;;;;;5098602;28;20862;-52
2023/06/10 06:56:11;;;;;;;1.50;1.13;;;21.30;99.90;;;;;;5103190;28;20483;-49
2023/06/10 06:58:38;;;;;;;1.60;1.20;;;21.30;99.90;;;;;;5098159;28;20441;-51
2023/06/10 07:01:05;;;;;;;2.00;1.05;;;21.30;99.90;;;;;;5104609;28;20433;-52
2023/06/10 07:03:32;;;;;;;2.00;1.30;;;21.40;99.90;;;;;;5099795;28;20489;-47
2023/06/10 07:06:00;;;;;;;1.42;1.10;;;21.50;99.90;;;;;;5106992;28;20847;-48
2023/06/10 07:08:27;;;;;;;1.30;1.10;;;21.60;99.90;;;;;;5112250;28;20868;-51
2023/06/10 07:10:54;;;;;;;1.45;1.15;;;21.80;99.90;;;;;;5105736;28;20499;-48
2023/06/10 07:13:21;;;;;;;1.90;1.20;;;21.90;99.90;;;;;;5096350;28;20469;-51
2023/06/10 07:15:49;;;;;;;2.03;1.20;;;22.00;99.90;;;;;;5096270;28;20625;-52
2023/06/10 07:18:17;;;;;;;1.50;1.10;;;21.90;99.90;;;;;;5095238;28;20775;-48
2023/06/10 07:20:44;;;;;;;2.08;1.27;;;22.00;99.90;;;;;;5096234;28;20470;-49
2023/06/10 07:23:12;;;;;;;1.97;1.20;;;22.00;99.90;;;;;;5096258;28;20422;-51
2023/06/10 07:25:39;;;;;;;1.50;1.30;;;22.00;99.90;;;;;;5096302;28;20441;-58
2023/06/10 07:28:06;;;;;;;1.57;1.20;;;22.10;99.90;;;;;;5096264;28;20487;-59
2023/06/10 07:30:33;;;;;;;1.50;1.20;;;22.20;99.90;;;;;;5095533;28;20494;-59
2023/06/10 07:33:02;;;;;;;1.30;1.00;;;22.30;99.90;;;;;;5095717;28;20429;-59
2023/06/10 07:35:29;;;;;;;1.45;1.10;;;22.40;99.90;;;;;;5096341;28;20425;-59
2023/06/10 07:37:55;;;;;;;1.63;1.25;;;22.50;99.90;;;;;;5095850;28;20417;-58
2023/06/10 07:40:25;;;;;;;1.60;1.20;;;22.80;99.90;;;;;;5094521;28;20483;-58
2023/06/10 07:42:53;;;;;;;1.58;1.10;;;22.90;99.90;;;;;;5093711;28;20720;-58
2023/06/10 07:45:20;;;;;;;2.60;1.13;;;22.80;99.90;;;;;;5094135;28;20703;-57
2023/06/10 07:47:48;;;;;;;1.50;1.20;;;22.60;99.90;;;;;;5093960;28;20484;-58
2023/06/10 07:50:15;;;;;;;1.47;1.20;;;22.60;99.90;;;;;;5093980;28;20430;-59
2023/06/10 07:52:42;;;;;;;2.33;1.30;;;22.60;99.90;;;;;;5094840;28;20825;-59
2023/06/10 07:55:09;;;;;;;3.28;1.30;;;22.70;99.90;;;;;;5094504;28;20514;-61
2023/06/10 07:57:38;;;;;;;1.42;1.02;;;22.90;99.90;;;;;;5092370;28;20442;-58
2023/06/10 08:00:06;;;;;;;1.30;1.10;;;23.00;99.90;;;;;;5094695;28;20433;-58
2023/06/10 08:02:33;;;;;;;1.40;1.10;;;23.20;99.90;;;;;;5094134;28;20449;-59
2023/06/10 08:05:00;;;;;;;1.73;1.20;;;23.30;99.90;;;;;;5094528;28;20437;-58
2023/06/10 08:07:28;;;;;;;2.90;1.30;;;23.50;99.90;;;;;;5099637;28;20436;-59
2023/06/10 08:09:55;;;;;;;1.52;1.30;;;23.60;99.90;;;;;;5100266;28;20812;-59
2023/06/10 08:12:22;;;;;;;1.50;1.30;;;23.60;99.90;;;;;;5100785;28;20893;-58
2023/06/10 08:14:50;;;;;;;1.35;1.20;;;23.60;99.90;;;;;;5103156;28;20477;-58
2023/06/10 08:17:17;;;;;;;2.30;1.15;;;23.60;99.90;;;;;;5099719;28;20809;-58
2023/06/10 08:19:44;;;;;;;1.55;1.10;;;23.70;99.90;;;;;;5102339;28;20452;-59
2023/06/10 08:22:11;;;;;;;1.60;1.30;;;23.90;99.90;;;;;;5101193;28;20878;-58
2023/06/10 08:24:38;;;;;;;2.20;1.10;;;23.80;99.90;;;;;;5100859;28;20479;-57
2023/06/10 08:27:06;;;;;;;1.50;1.10;;;23.90;99.90;;;;;;5092542;28;20426;-57
2023/06/10 08:29:34;;;;;;;1.50;1.27;;;23.90;99.90;;;;;;5092066;28;20501;-58
2023/06/10 08:32:03;;;;;;;1.48;1.30;;;24.10;99.90;;;;;;5099362;28;20493;-58
2023/06/10 08:34:30;;;;;;;1.77;1.30;;;24.00;99.90;;;;;;5097615;28;20447;-58
2023/06/10 08:36:57;;;;;;;1.70;1.20;;;24.10;99.90;;;;;;5093397;28;20429;-58
2023/06/10 08:39:24;;;;;;;1.45;1.20;;;24.20;99.90;;;;;;5093122;28;20425;-59
2023/06/10 08:42:01;;;;;;;1.60;1.10;;;24.30;99.90;;;;;;5090010;28;20429;-57
2023/06/10 08:44:29;;;;;;;1.30;1.00;;;24.40;99.90;;;;;;5094155;28;20430;-58
2023/06/10 08:47:00;;;;;;;1.50;1.10;;;24.60;99.90;;;;;;5097426;28;20429;-58
2023/06/10 08:49:31;;;;;;;1.70;1.10;;;24.60;99.90;;;;;;5092201;28;20469;-58
2023/06/10 08:52:00;;;;;;;1.30;1.10;;;24.60;99.90;;;;;;5106775;28;20462;-58
2023/06/10 08:54:32;;;;;;;1.30;1.10;;;24.80;99.90;;;;;;5094534;28;20449;-58
2023/06/10 08:57:02;;;;;;;2.20;1.00;;;24.80;99.90;;;;;;5101279;28;20489;-57
2023/06/10 08:59:29;;;;;;;1.55;1.00;;;24.80;99.90;;;;;;5104711;28;20485;-58
2023/06/10 09:01:57;;;;;;;1.90;1.10;;;24.90;99.90;;;;;;5094152;28;20433;-56
2023/06/10 09:04:25;;;;;;;1.20;1.00;;;25.10;99.90;;;;;;5100168;28;20426;-58
2023/06/10 09:06:55;;;;;;;1.40;1.10;;;25.30;99.90;;;;;;5093583;28;20465;-59
2023/06/10 09:09:23;;;;;;;1.13;1.00;;;25.40;99.90;;;;;;5110580;28;20477;-57
2023/06/10 09:11:50;;;;;;;1.20;1.10;;;25.50;99.90;;;;;;5096922;28;20433;-57
2023/06/10 09:14:17;;;;;;;1.30;1.00;;;25.60;99.90;;;;;;5092549;28;20437;-58
2023/06/10 09:16:46;;;;;;;2.38;1.08;;;25.40;99.90;;;;;;5096055;28;20737;-57
2023/06/10 09:19:14;;;;;;;1.40;1.23;;;25.50;99.90;;;;;;5097849;28;20895;-57
2023/06/10 09:21:40;;;;;;;1.25;1.00;;;25.60;99.90;;;;;;5099061;28;20710;-57
2023/06/10 09:24:09;;;;;;;1.52;1.00;;;25.70;99.90;;;;;;5103434;28;20431;-56
2023/06/10 09:26:36;;;;;;;1.20;1.00;;;25.80;99.90;;;;;;5113343;28;20480;-56
2023/06/10 09:29:05;;;;;;;1.30;1.10;;;25.80;99.90;;;;;;5112827;28;20420;-58
2023/06/10 09:31:35;;;;;;;1.38;1.17;;;25.90;99.90;;;;;;5116437;28;20438;-58
2023/06/10 09:34:09;;;;;;;1.50;1.00;;;26.00;99.90;;;;;;5117718;28;20436;-57
2023/06/10 09:36:37;;;;;;;2.60;1.20;;;26.10;99.90;;;;;;5117659;28;20507;-57
2023/06/10 09:39:05;;;;;;;1.38;1.10;;;26.20;99.90;;;;;;5117452;28;20484;-58
2023/06/10 09:41:42;;;;;;;1.30;1.00;;;26.20;99.90;;;;;;5111323;28;20504;-57
2023/06/10 09:44:14;;;;;;;1.95;1.10;;;26.30;99.90;;;;;;5115654;28;20765;-58
2023/06/10 09:46:41;;;;;;;1.30;1.20;;;26.20;99.90;;;;;;5113922;28;20435;-57
2023/06/10 09:49:08;;;;;;;1.10;0.95;;;26.10;99.90;;;;;;5108404;28;20959;-56
2023/06/10 09:51:35;;;;;;;1.42;1.13;;;26.20;99.90;;;;;;5115713;28;20473;-57
2023/06/10 09:54:04;;;;;;;1.70;1.20;;;26.50;99.90;;;;;;5114297;28;20428;-58
2023/06/10 09:56:37;;;;;;;1.30;1.10;;;26.70;99.90;;;;;;5106789;28;20486;-60
2023/06/10 09:59:06;;;;;;;1.10;0.97;;;27.00;99.90;;;;;;5098492;28;20430;-58
2023/06/10 10:01:33;;;;;;;1.45;1.10;;;27.20;99.90;;;;;;5108275;28;21427;-59
2023/06/10 10:04:01;;;;;;;2.05;1.10;;;27.30;99.90;;;;;;5116038;28;20455;-59
2023/06/10 10:06:29;;;;;;;1.90;1.20;;;27.40;99.90;;;;;;5107191;28;20433;-59
2023/06/10 10:08:57;;;;;;;1.20;1.02;;;27.50;99.90;;;;;;5096822;28;20417;-58
2023/06/10 10:11:25;;;;;;;1.20;1.00;;;27.70;99.90;;;;;;5096479;28;20849;-57
2023/06/10 10:13:54;;;;;;;1.20;1.10;;;27.70;99.90;;;;;;5099339;28;20434;-57
2023/06/10 10:16:23;;;;;;;1.30;1.20;;;27.60;99.90;;;;;;5111048;28;20433;-59
2023/06/10 10:18:55;;;;;;;1.80;1.40;;;27.40;99.90;;;;;;5103025;28;20432;-57
2023/06/10 10:21:27;;;;;;;1.40;1.10;;;27.30;99.90;;;;;;5107128;28;20918;-58
2023/06/10 10:23:59;;;;;;;1.40;1.30;;;27.10;99.90;;;;;;5095381;28;20483;-57
2023/06/10 10:26:27;;;;;;;1.40;1.30;;;27.30;99.90;;;;;;5095046;28;20432;-57
2023/06/10 10:29:06;;;;;;;1.80;1.20;;;27.80;99.90;;;;;;5095627;28;20426;-56
2023/06/10 10:31:36;;;;;;;1.40;1.00;;;28.40;99.90;;;;;;5113716;28;20431;-59
2023/06/10 10:34:07;;;;;;;1.90;1.30;;;28.70;99.90;;;;;;5103730;28;20870;-59
2023/06/10 10:36:35;;;;;;;1.30;1.10;;;28.80;99.30;;;;;;5095613;28;20422;-58
2023/06/10 10:39:03;;;;;;;1.40;1.10;;;28.70;98.00;;;;;;5105920;28;20527;-59
2023/06/10 10:41:32;;;;;;;1.70;1.10;;;28.60;97.30;;;;;;5114537;28;20522;-59
2023/06/10 10:44:01;;;;;;;1.80;1.10;;;29.30;96.40;;;;;;5112336;28;20493;-63
2023/06/10 10:46:28;;;;;;;1.40;1.20;;;29.70;96.00;;;;;;5096564;28;21004;-58
2023/06/10 10:48:57;;;;;;;1.30;1.20;;;30.20;94.20;;;;;;5095723;28;20429;-59
2023/06/10 10:51:25;;;;;;;1.70;1.10;;;30.00;93.60;;;;;;5096185;28;20429;-59
2023/06/10 10:54:11;;;;;;;1.10;1.00;;;30.20;91.80;;;;;;5095493;28;20524;-59
2023/06/10 10:56:38;;;;;;;1.40;1.20;;;30.10;91.20;;;;;;5096322;28;20528;-59
2023/06/10 10:59:07;;;;;;;1.90;1.20;;;30.30;89.60;;;;;;5095946;28;20472;-60
2023/06/10 11:01:46;;;;;;;1.20;1.10;;;30.40;88.60;;;;;;5097234;28;20433;-59
2023/06/10 11:04:13;;;;;;;1.70;1.00;;;30.10;85.90;;;;;;5104221;28;20445;-58
2023/06/10 11:06:40;;;;;;;1.40;1.10;;;29.90;86.50;;;;;;5109187;28;20497;-59
2023/06/10 11:09:29;;;;;;;1.20;1.00;;;30.40;84.50;;;;;;5116034;28;20487;-59
2023/06/10 11:11:59;;;;;;;1.40;1.20;;;30.50;84.80;;;;;;5115362;28;20423;-58
2023/06/10 11:14:29;;;;;;;2.40;2.20;;;30.60;85.70;;;;;;5109421;28;20428;-62
2023/06/10 11:16:58;;;;;;;2.28;2.08;;;30.50;84.50;;;;;;5113872;28;20564;-60
2023/06/10 11:19:36;;;;;;;1.75;1.30;;;30.30;86.70;;;;;;5110420;28;20451;-59
2023/06/10 11:22:04;;;;;;;1.23;1.10;;;30.00;85.70;;;;;;5113304;28;20781;-58
2023/06/10 11:24:32;;;;;;;1.40;1.17;;;29.60;86.60;;;;;;5102408;28;20430;-59
2023/06/10 11:27:17;;;;;;;1.20;1.10;;;29.70;88.20;;;;;;5095156;28;20479;-59
2023/06/10 11:30:00;;;;;;;17.75;14.95;;;30.40;84.70;;;;;;5094806;28;20512;-58
2023/06/10 11:32:31;;;;;;;2.03;1.80;;;30.90;81.80;;;;;;5095228;28;20524;-59
2023/06/10 11:34:58;;;;;;;1.40;1.30;;;30.90;81.40;;;;;;5095329;28;20520;-59
2023/06/10 11:37:26;;;;;;;1.50;1.13;;;31.20;78.80;;;;;;5095184;28;20907;-60
2023/06/10 11:39:54;;;;;;;1.50;1.10;;;31.10;78.00;;;;;;5094748;28;20875;-59
2023/06/10 11:42:21;;;;;;;1.40;1.10;;;31.40;78.30;;;;;;5095012;28;20425;-59
2023/06/10 11:44:50;;;;;;;1.20;1.10;;;31.60;75.80;;;;;;5099337;28;20434;-59
2023/06/10 11:47:19;;;;;;;1.60;1.20;;;31.70;73.10;;;;;;5093418;28;20429;-59
2023/06/10 11:49:47;;;;;;;1.20;1.10;;;31.70;72.80;;;;;;5111403;28;20435;-58
2023/06/10 11:52:14;;;;;;;1.40;1.10;;;31.70;72.10;;;;;;5109941;28;20432;-58
2023/06/10 11:54:41;;;;;;;1.25;1.15;;;31.80;71.00;;;;;;5104720;28;20490;-58
2023/06/10 11:57:09;;;;;;;1.20;1.07;;;31.40;71.30;;;;;;5096036;28;20422;-59
2023/06/10 11:59:36;;;;;;;1.30;1.20;;;31.50;71.60;;;;;;5100738;28;20553;-59
2023/06/10 12:02:03;;;;;;;1.20;1.10;;;31.60;70.00;;;;;;5103656;28;20481;-59
2023/06/10 12:04:31;;;;;;;1.40;1.20;;;31.60;69.00;;;;;;5095351;28;20438;-59
2023/06/10 12:06:58;;;;;;;1.20;1.10;;;31.70;70.00;;;;;;5094309;28;20956;-58
2023/06/10 12:09:27;;;;;;;1.48;1.10;;;31.80;66.70;;;;;;5092763;28;20871;-59
2023/06/10 12:11:55;;;;;;;1.20;1.10;;;31.10;67.40;;;;;;5095817;28;20472;-59
2023/06/10 12:14:51;;;;;;;1.30;1.10;;;30.70;70.90;;;;;;5095591;28;20725;-59
2023/06/10 12:17:18;;;;;;;1.30;1.10;;;31.00;70.80;;;;;;5103435;28;20431;-58
2023/06/10 12:19:47;;;;;;;1.20;1.10;;;31.60;67.90;;;;;;5103509;28;20780;-59
2023/06/10 12:22:14;;;;;;;1.40;1.10;;;31.80;66.80;;;;;;5095913;28;20430;-59
2023/06/10 12:24:46;;;;;;;3.10;1.10;;;31.60;67.90;;;;;;5106726;28;20862;-59
2023/06/10 12:27:13;;;;;;;1.60;1.10;;;31.80;65.20;;;;;;5095774;28;20421;-58
2023/06/10 12:29:51;;;;;;;1.20;1.10;;;32.10;65.00;;;;;;5094135;28;21525;-59
2023/06/10 12:32:20;;;;;;;1.10;1.00;;;32.10;63.30;;;;;;5097387;28;20458;-59
2023/06/10 12:34:48;;;;;;;1.25;1.00;;;31.60;64.10;;;;;;5099505;28;20434;-59
2023/06/10 12:37:15;;;;;;;1.20;0.90;;;31.20;64.90;;;;;;5093615;28;20486;-58
2023/06/10 12:39:43;;;;;;;1.20;1.00;;;30.60;63.60;;;;;;5094448;28;20467;-58
2023/06/10 12:42:10;;;;;;;1.10;1.00;;;30.20;65.10;;;;;;5093397;28;20434;-60
2023/06/10 12:44:41;;;;;;;1.40;1.00;;;30.00;66.50;;;;;;5092033;28;20418;-59
2023/06/10 12:47:12;;;;;;;2.00;1.00;;;30.00;66.60;;;;;;5092436;28;20428;-59
2023/06/10 12:49:39;;;;;;;1.27;1.00;;;30.00;66.30;;;;;;5092976;28;20513;-59
2023/06/10 12:52:08;;;;;;;1.20;1.00;;;29.80;67.70;;;;;;5092312;28;20426;-60
2023/06/10 12:54:35;;;;;;;2.15;0.90;;;29.50;67.90;;;;;;5101449;28;20468;-59